This is the latest recevied weather packets stored in our database for station/object TA1FM. If no packets are shown the sender has not sent any weather packets the latest 10 day(s).
| Time | Temp. | Humidity | Pressure | Rain* | Wind** | Luminosity | Snow |
|---|---|---|---|---|---|---|---|
| 1778127141 | 6.11° C | 44% | 904.7 hPa | - | - | - | - |
| 1778126241 | 12.22° C | 45% | 913.2 hPa | - | - | - | - |
| 1778125341 | 11.67° C | 45% | 912.9 hPa | - | - | - | - |
| 1778124441 | 11.67° C | 45% | 912.9 hPa | - | - | - | - |
| 1778123541 | 11.67° C | 45% | 912.7 hPa | - | - | - | - |
| 1778122641 | 11.11° C | 46% | 912.8 hPa | - | - | - | - |
| 1778111005 | 12.78° C | 41% | 913.6 hPa | - | - | - | - |
| 1778110105 | 12.78° C | 41% | 912.7 hPa | - | - | - | - |
| 1778109205 | 12.78° C | 41% | 912.7 hPa | - | - | - | - |
| 1778108305 | 12.78° C | 42% | 912.9 hPa | - | - | - | - |
| 1778107405 | 12.78° C | 42% | 912.9 hPa | - | - | - | - |
| 1778106507 | 12.78° C | 42% | 912.9 hPa | - | - | - | - |
| 1778105601 | 12.78° C | 42% | 913 hPa | - | - | - | - |
| 1778104700 | 12.78° C | 42% | 912.9 hPa | - | - | - | - |
| 1778103800 | 12.78° C | 42% | 913 hPa | - | - | - | - |
| 1778102900 | 12.78° C | 42% | 913 hPa | - | - | - | - |
| 1778102000 | 12.78° C | 42% | 912.9 hPa | - | - | - | - |
| 1778101100 | 12.78° C | 42% | 912.9 hPa | - | - | - | - |
| 1778100200 | 12.78° C | 42% | 912.9 hPa | - | - | - | - |
| 1778099300 | 13.33° C | 42% | 913 hPa | - | - | - | - |
| 1778098399 | 13.33° C | 42% | 913 hPa | - | - | - | - |
| 1778097499 | 13.33° C | 43% | 913 hPa | - | - | - | - |
| 1778096599 | 13.33° C | 43% | 912.9 hPa | - | - | - | - |
| 1778095699 | 13.33° C | 43% | 912.9 hPa | - | - | - | - |
| 1778094799 | 13.89° C | 42% | 912.8 hPa | - | - | - | - |
* Rain since midnight (hover to see other rain measurements)
** Current wind speed in m/s (hover to see current wind gust speed)